createdAt,value
2022-10-01T00:00:01.583Z,0
2022-10-01T00:05:01.726Z,0
2022-10-01T00:10:01.907Z,0
2022-10-01T00:15:05.589Z,0
2022-10-01T00:20:01.587Z,0
2022-10-01T00:25:01.616Z,0
2022-10-01T00:30:01.784Z,0
2022-10-01T00:35:01.610Z,0
2022-10-01T00:40:01.613Z,0
2022-10-01T00:45:01.637Z,0
2022-10-01T00:50:01.673Z,0
2022-10-01T00:55:01.778Z,0
2022-10-01T01:00:01.626Z,0
2022-10-01T01:05:01.765Z,0
2022-10-01T01:10:01.610Z,0
2022-10-01T01:15:01.597Z,0
2022-10-01T01:20:01.785Z,0
2022-10-01T01:25:01.974Z,0
2022-10-01T01:30:01.654Z,0
2022-10-01T01:35:01.642Z,0
2022-10-01T01:40:01.684Z,0
2022-10-01T01:45:01.744Z,0
2022-10-01T01:50:01.845Z,0
2022-10-01T01:55:01.760Z,0
2022-10-01T02:00:01.690Z,0
2022-10-01T02:05:01.832Z,0
2022-10-01T02:10:01.674Z,0
2022-10-01T02:15:01.932Z,0
2022-10-01T02:20:01.727Z,0
2022-10-01T02:25:01.827Z,0
2022-10-01T02:30:01.771Z,0
2022-10-01T02:35:01.737Z,0
2022-10-01T02:40:01.914Z,0
2022-10-01T02:45:01.722Z,0
2022-10-01T02:50:01.707Z,0
2022-10-01T02:55:01.771Z,0
2022-10-01T03:00:01.895Z,0
2022-10-01T03:05:01.782Z,0
2022-10-01T03:10:01.719Z,0
2022-10-01T03:15:01.761Z,0
2022-10-01T03:20:01.785Z,0
2022-10-01T03:25:01.948Z,0
2022-10-01T03:30:01.770Z,0
2022-10-01T03:35:01.748Z,0
2022-10-01T03:40:01.888Z,0
2022-10-01T03:45:01.943Z,0
2022-10-01T03:50:01.765Z,0
2022-10-01T03:55:01.955Z,0
2022-10-01T04:00:01.843Z,0
2022-10-01T04:05:01.875Z,0
2022-10-01T04:10:01.769Z,0
2022-10-01T04:15:01.800Z,0
2022-10-01T04:20:01.787Z,0
2022-10-01T04:25:01.838Z,0
2022-10-01T04:30:02.018Z,0
2022-10-01T04:35:01.794Z,0
2022-10-01T04:40:01.847Z,0
2022-10-01T04:45:01.929Z,0
2022-10-01T04:50:01.974Z,0
2022-10-01T04:55:01.873Z,0
2022-10-01T05:00:01.819Z,0
2022-10-01T05:05:01.828Z,0
2022-10-01T05:10:01.995Z,0.17525925925925928
2022-10-01T05:15:01.832Z,0.22133333333333333
2022-10-01T05:20:01.906Z,0.05907936507936508
2022-10-01T05:25:02.032Z,0.2258730158730159
2022-10-01T05:30:01.999Z,0.31512169312169314
2022-10-01T05:35:01.919Z,0.07582010582010583
2022-10-01T05:40:01.863Z,0.26958730158730154
2022-10-01T05:45:01.917Z,0.36786243386243384
2022-10-01T05:50:02.149Z,0.3982645502645503
2022-10-01T05:55:01.894Z,0.4787830687830687
2022-10-01T06:00:02.009Z,0.3915026455026455
2022-10-01T06:05:02.012Z,0.47785185185185186
2022-10-01T06:10:02.021Z,0.5726666666666668
2022-10-01T06:15:01.985Z,1.3562645502645503
2022-10-01T06:20:01.905Z,2.155968253968254
2022-10-01T06:25:01.941Z,3.1957354497354498
2022-10-01T06:30:02.017Z,3.975100529100529
2022-10-01T06:35:02.102Z,4.570243386243387
2022-10-01T06:40:01.973Z,5.624169312169312
2022-10-01T06:45:01.929Z,6.510412698412699
2022-10-01T06:50:01.909Z,6.74373544973545
2022-10-01T06:55:02.134Z,6.320084656084656
2022-10-01T07:00:01.919Z,6.59141798941799
2022-10-01T07:05:01.943Z,8.839216931216932
2022-10-01T07:10:01.955Z,11.299671957671958
2022-10-01T07:15:02.090Z,12.380306878306879
2022-10-01T07:20:01.993Z,10.368455026455027
2022-10-01T07:25:02.018Z,8.307142857142857
2022-10-01T07:30:02.004Z,9.036084656084656
2022-10-01T07:35:02.061Z,12.838264550264553
2022-10-01T07:40:06.646Z,15.919502645502645
2022-10-01T07:45:02.020Z,17.38674074074074
2022-10-01T07:50:02.073Z,21.121640211640212
2022-10-01T07:55:02.111Z,19.66684656084656
2022-10-01T08:00:02.144Z,20.80820105820106
2022-10-01T08:05:01.979Z,18.778285714285715
2022-10-01T08:10:01.989Z,21.67962962962963
2022-10-01T08:15:01.959Z,21.465386243386245
2022-10-01T08:20:02.170Z,18.895026455026454
2022-10-01T08:25:02.295Z,19.211111111111112
2022-10-01T08:30:02.020Z,20.659925925925926
2022-10-01T08:35:03.359Z,16.849238095238096
2022-10-01T08:40:02.023Z,13.34378835978836
2022-10-01T08:45:02.207Z,12.312137566137567
2022-10-01T08:50:02.014Z,13.436126984126984
2022-10-01T08:55:02.081Z,14.693185185185186
2022-10-01T09:00:02.094Z,15.759703703703707
2022-10-01T09:05:02.508Z,16.539439153439154
2022-10-01T09:10:02.230Z,17.482529100529103
2022-10-01T09:15:02.139Z,18.23620105820106
2022-10-01T09:20:02.123Z,18.972370370370374
2022-10-01T09:25:02.062Z,18.487206349206346
2022-10-01T09:30:02.277Z,15.180582010582011
2022-10-01T09:35:04.409Z,12.863957671957671
2022-10-01T09:40:02.071Z,12.928296296296296
2022-10-01T09:45:02.110Z,12.72405291005291
2022-10-01T09:50:02.221Z,12.088338624338624
2022-10-01T09:55:02.149Z,10.379259259259259
2022-10-01T10:00:02.121Z,11.253608465608467
2022-10-01T10:05:02.133Z,12.72142857142857
2022-10-01T10:10:02.099Z,11.232349206349207
2022-10-01T10:15:02.276Z,8.963978835978835
2022-10-01T10:20:02.156Z,8.348423280423281
2022-10-01T10:25:02.133Z,6.8334285714285725
2022-10-01T10:30:02.206Z,7.483121693121693
2022-10-01T10:35:03.477Z,8.608169312169311
2022-10-01T10:40:02.266Z,7.938317460317461
2022-10-01T10:45:02.151Z,7.940296296296297
2022-10-01T10:50:02.215Z,7.257206349206349
2022-10-01T10:55:02.305Z,7.09773544973545
2022-10-01T11:00:02.218Z,10.338666666666667
2022-10-01T11:05:02.312Z,8.936899470899471
2022-10-01T11:10:02.205Z,9.184857142857144
2022-10-01T11:15:02.174Z,9.1084126984127
2022-10-01T11:20:02.174Z,8.93095238095238
2022-10-01T11:25:02.220Z,8.840698412698412
2022-10-01T11:30:02.760Z,9.03562962962963
2022-10-01T11:35:02.181Z,7.9668677248677255
2022-10-01T11:40:02.199Z,6.751079365079366
2022-10-01T11:45:02.224Z,8.273079365079365
2022-10-01T11:50:02.174Z,12.062507936507934
2022-10-01T11:55:02.384Z,10.112179894179894
2022-10-01T12:00:02.553Z,10.91364021164021
2022-10-01T12:05:02.208Z,7.889798941798942
2022-10-01T12:10:02.225Z,5.030613756613757
2022-10-01T12:15:06.384Z,4.452952380952381
2022-10-01T12:20:02.432Z,3.090984126984127
2022-10-01T12:25:02.272Z,1.3372169312169313
2022-10-01T12:30:02.281Z,2.554804232804233
2022-10-01T12:35:02.225Z,3.370857142857143
2022-10-01T12:40:02.222Z,4.01962962962963
2022-10-01T12:45:02.409Z,6.159566137566138
2022-10-01T12:50:02.266Z,5.4379153439153445
2022-10-01T12:55:02.350Z,3.500338624338624
2022-10-01T13:00:02.362Z,1.8613015873015872
2022-10-01T13:05:02.254Z,1.7621164021164024
2022-10-01T13:10:02.454Z,3.7364444444444445
2022-10-01T13:15:02.253Z,6.0514708994709
2022-10-01T13:20:02.274Z,5.585238095238096
2022-10-01T13:25:02.286Z,4.214179894179894
2022-10-01T13:30:02.394Z,3.8638730158730166
2022-10-01T13:35:02.263Z,3.7587830687830683
2022-10-01T13:40:02.290Z,1.97221164021164
2022-10-01T13:45:02.361Z,1.4989947089947089
2022-10-01T13:50:02.281Z,1.3504867724867724
2022-10-01T13:55:02.487Z,1.975862433862434
2022-10-01T14:00:02.289Z,1.6879365079365076
2022-10-01T14:05:02.279Z,1.44584126984127
2022-10-01T14:10:02.389Z,2.0654179894179894
2022-10-01T14:15:02.457Z,1.5371851851851854
2022-10-01T14:20:02.314Z,0.39656084656084656
2022-10-01T14:25:02.334Z,0.3304126984126984
2022-10-01T14:30:02.350Z,0.4983174603174603
2022-10-01T14:35:02.322Z,0.8268359788359788
2022-10-01T14:40:02.485Z,1.2342433862433861
2022-10-01T14:45:02.329Z,1.6850264550264553
2022-10-01T14:50:02.338Z,2.1153756613756616
2022-10-01T14:55:02.486Z,2.8240211640211643
2022-10-01T15:00:02.498Z,2.307873015873016
2022-10-01T15:05:02.415Z,1.9390370370370371
2022-10-01T15:10:02.592Z,2.058063492063492
2022-10-01T15:15:02.356Z,2.546941798941799
2022-10-01T15:20:02.398Z,1.9061798941798942
2022-10-01T15:25:02.605Z,1.737925925925926
2022-10-01T15:30:02.406Z,1.054
2022-10-01T15:35:02.381Z,0.5268571428571429
2022-10-01T15:40:02.367Z,0.23332275132275132
2022-10-01T15:45:02.579Z,0
2022-10-01T15:50:02.453Z,0
2022-10-01T15:55:02.397Z,0
2022-10-01T16:00:02.403Z,0
2022-10-01T16:05:02.469Z,0
2022-10-01T16:10:02.642Z,0
2022-10-01T16:15:02.495Z,0
2022-10-01T16:20:02.438Z,0
2022-10-01T16:25:02.420Z,0
2022-10-01T16:30:05.270Z,0
2022-10-01T16:35:02.405Z,0
2022-10-01T16:40:02.415Z,0
2022-10-01T16:45:02.499Z,0
2022-10-01T16:50:02.589Z,0
2022-10-01T16:55:02.745Z,0
2022-10-01T17:00:02.493Z,0
2022-10-01T17:05:02.423Z,0
2022-10-01T17:10:02.640Z,0
2022-10-01T17:15:02.681Z,0
2022-10-01T17:20:02.440Z,0
2022-10-01T17:25:02.479Z,0
2022-10-01T17:30:02.493Z,0
2022-10-01T17:35:02.783Z,0
2022-10-01T17:40:02.471Z,0
2022-10-01T17:45:02.474Z,0
2022-10-01T17:50:02.488Z,0
2022-10-01T17:55:02.521Z,0
2022-10-01T18:00:02.674Z,0
2022-10-01T18:05:02.538Z,0
2022-10-01T18:10:02.503Z,0
2022-10-01T18:15:02.532Z,0
2022-10-01T18:20:02.648Z,0
2022-10-01T18:25:02.555Z,0
2022-10-01T18:30:02.564Z,0
2022-10-01T18:35:02.568Z,0
2022-10-01T18:40:02.657Z,0
2022-10-01T18:45:02.697Z,0
2022-10-01T18:50:02.534Z,0
2022-10-01T18:55:02.596Z,0
2022-10-01T19:00:02.593Z,0
2022-10-01T19:05:02.737Z,0
2022-10-01T19:10:02.724Z,0
2022-10-01T19:15:02.576Z,0
2022-10-01T19:20:02.633Z,0
2022-10-01T19:25:02.644Z,0
2022-10-01T19:30:02.828Z,0
2022-10-01T19:35:02.563Z,0
2022-10-01T19:40:02.559Z,0
2022-10-01T19:45:02.711Z,0
2022-10-01T19:50:02.745Z,0
2022-10-01T19:55:02.940Z,0
2022-10-01T20:00:02.585Z,0
2022-10-01T20:05:02.725Z,0
2022-10-01T20:10:05.423Z,0
2022-10-01T20:15:02.841Z,0
2022-10-01T20:20:02.602Z,0
2022-10-01T20:25:02.665Z,0
2022-10-01T20:30:02.694Z,0
2022-10-01T20:35:02.799Z,0
2022-10-01T20:40:02.636Z,0
2022-10-01T20:45:02.774Z,0
2022-10-01T20:50:04.815Z,0
2022-10-01T20:55:02.818Z,0
2022-10-01T21:00:02.947Z,0
2022-10-01T21:05:02.640Z,0
2022-10-01T21:10:02.796Z,0
2022-10-01T21:15:02.807Z,0
2022-10-01T21:20:02.830Z,0
2022-10-01T21:25:02.672Z,0
2022-10-01T21:30:02.704Z,0
2022-10-01T21:35:02.675Z,0
2022-10-01T21:40:02.814Z,0
2022-10-01T21:45:02.919Z,0
2022-10-01T21:50:01.219Z,0
2022-10-01T21:55:01.027Z,0
2022-10-01T22:00:01.254Z,0
2022-10-01T22:05:01.003Z,0
2022-10-01T22:10:01.191Z,0
2022-10-01T22:15:01.019Z,0
2022-10-01T22:20:01.048Z,0
2022-10-01T22:25:01.082Z,0
2022-10-01T22:30:01.163Z,0
2022-10-01T22:35:01.057Z,0
2022-10-01T22:40:01.054Z,0
2022-10-01T22:45:01.189Z,0
2022-10-01T22:50:01.023Z,0
2022-10-01T22:55:01.293Z,0
2022-10-01T23:00:01.139Z,0
2022-10-01T23:05:01.044Z,0
2022-10-01T23:10:01.210Z,0
2022-10-01T23:15:01.185Z,0
2022-10-01T23:20:01.070Z,0
2022-10-01T23:25:01.122Z,0
2022-10-01T23:30:01.136Z,0
2022-10-01T23:35:01.101Z,0
2022-10-01T23:40:01.250Z,0
2022-10-01T23:45:01.122Z,0
2022-10-01T23:50:01.259Z,0
2022-10-01T23:55:01.201Z,0
